KHYX

Saginaw County H W Browne Airport

Saginaw, Michigan, USA
METAR KHYX 212055Z AUTO 22007KT 10SM OVC038 06/M01 A3014 RMK AO2
Observed Flight Rules
Oct-21 @ 20:55 UTC (13 minutes ago) Visual Flight Rules
Wind Visibility Clouds
220° at 7 knots 10 miles
  • Overcast at 3,800' AGL
Temperatures Readings
Current 6°C / 43°F
Dewpoint -1°C / 30°F
Humidity 61%
Altimeter 30.14" Hg
Pressure 1021 hPa
Elevation 183
METAR KHYX 212055Z AUTO 22007KT 10SM OVC038 06/M01 A3014 RMK AO2
Observed Flight Rules
Oct-21 @ 20:55 UTC
(13 minutes ago)
VFR
Wind Visibility
220° at 7 knots 10 miles
Clouds
  • Overcast at 3,800' AGL
Temperature Dewpoint
6°C / 43°F -1°C / 30°F
Humidity Altimeter Pressure
61% 30.14" Hg 1021 hPa